<?xml version="1.0" encoding="UTF-8" standalone="no" ?>
<gpx xmlns="http://www.topografix.com/GPX/1/1" xmlns:xsi="http://www.w3.org/2001/XMLSchema-instance" xsi:schemaLocation="http://www.topografix.com/GPX/1/1 http://www.topografix.com/GPX/1/1/gpx.xsd" version="1.1" creator="VisuGPX - https://www.visugpx.com">
  <metadata>
    <name>Sous le Monastère de Chalais</name>
    <desc><![CDATA[Découverte de nouveaux sentiers sous le Monastère de Chalais]]></desc>
  </metadata>
  <trk>
    <name><![CDATA[Ss le monastère de Chalais 14/03/2010 14:37]]></name>
    <desc><![CDATA[Cycling]]></desc>
    <trkseg>
      <trkpt lat="45.27777" lon="5.64769">
        <ele>212</ele>
        <time>2010-03-14T14:38:15.56Z</time>
      </trkpt>
      <trkpt lat="45.27776" lon="5.64773">
        <ele>212</ele>
        <time>2010-03-14T14:38:25.56Z</time>
      </trkpt>
      <trkpt lat="45.27763" lon="5.64784">
        <ele>212</ele>
        <time>2010-03-14T14:38:38.56Z</time>
      </trkpt>
      <trkpt lat="45.27759" lon="5.64747">
        <ele>209</ele>
        <time>2010-03-14T14:38:50.55Z</time>
      </trkpt>
      <trkpt lat="45.27784" lon="5.64764">
        <ele>212</ele>
        <time>2010-03-14T14:39:02.56Z</time>
      </trkpt>
      <trkpt lat="45.27792" lon="5.64777">
        <ele>213</ele>
        <time>2010-03-14T14:39:12.55Z</time>
      </trkpt>
      <trkpt lat="45.27801" lon="5.64792">
        <ele>214</ele>
        <time>2010-03-14T14:39:22.55Z</time>
      </trkpt>
      <trkpt lat="45.27803" lon="5.64802">
        <ele>214</ele>
        <time>2010-03-14T14:39:32.55Z</time>
      </trkpt>
      <trkpt lat="45.2781" lon="5.64804">
        <ele>214</ele>
        <time>2010-03-14T14:39:42.54Z</time>
      </trkpt>
      <trkpt lat="45.27814" lon="5.64824">
        <ele>216</ele>
        <time>2010-03-14T14:39:52.54Z</time>
      </trkpt>
      <trkpt lat="45.2782" lon="5.64836">
        <ele>219</ele>
        <time>2010-03-14T14:40:02.54Z</time>
      </trkpt>
      <trkpt lat="45.27841" lon="5.64844">
        <ele>222</ele>
        <time>2010-03-14T14:40:13.54Z</time>
      </trkpt>
      <trkpt lat="45.27867" lon="5.64836">
        <ele>223</ele>
        <time>2010-03-14T14:40:25.53Z</time>
      </trkpt>
      <trkpt lat="45.27892" lon="5.64823">
        <ele>220</ele>
        <time>2010-03-14T14:40:35.53Z</time>
      </trkpt>
      <trkpt lat="45.27922" lon="5.64797">
        <ele>220</ele>
        <time>2010-03-14T14:40:46.53Z</time>
      </trkpt>
      <trkpt lat="45.27965" lon="5.64769">
        <ele>219</ele>
        <time>2010-03-14T14:40:58.52Z</time>
      </trkpt>
      <trkpt lat="45.27995" lon="5.64745">
        <ele>215</ele>
        <time>2010-03-14T14:41:08.52Z</time>
      </trkpt>
      <trkpt lat="45.28003" lon="5.64749">
        <ele>216</ele>
        <time>2010-03-14T14:41:18.52Z</time>
      </trkpt>
      <trkpt lat="45.28008" lon="5.64762">
        <ele>218</ele>
        <time>2010-03-14T14:41:28.52Z</time>
      </trkpt>
      <trkpt lat="45.28018" lon="5.64779">
        <ele>219</ele>
        <time>2010-03-14T14:41:38.51Z</time>
      </trkpt>
      <trkpt lat="45.28007" lon="5.64793">
        <ele>220</ele>
        <time>2010-03-14T14:41:48.51Z</time>
      </trkpt>
      <trkpt lat="45.28" lon="5.64812">
        <ele>222</ele>
        <time>2010-03-14T14:41:58.51Z</time>
      </trkpt>
      <trkpt lat="45.28003" lon="5.64831">
        <ele>223</ele>
        <time>2010-03-14T14:42:08.51Z</time>
      </trkpt>
      <trkpt lat="45.28003" lon="5.64854">
        <ele>226</ele>
        <time>2010-03-14T14:42:19.5Z</time>
      </trkpt>
      <trkpt lat="45.28012" lon="5.64863">
        <ele>227</ele>
        <time>2010-03-14T14:42:29.5Z</time>
      </trkpt>
      <trkpt lat="45.28032" lon="5.64885">
        <ele>228</ele>
        <time>2010-03-14T14:42:41.5Z</time>
      </trkpt>
      <trkpt lat="45.2803" lon="5.64897">
        <ele>229</ele>
        <time>2010-03-14T14:42:52.49Z</time>
      </trkpt>
      <trkpt lat="45.28033" lon="5.64906">
        <ele>229</ele>
        <time>2010-03-14T14:43:04.49Z</time>
      </trkpt>
      <trkpt lat="45.28035" lon="5.64921">
        <ele>234</ele>
        <time>2010-03-14T14:43:14.49Z</time>
      </trkpt>
      <trkpt lat="45.28036" lon="5.64953">
        <ele>235</ele>
        <time>2010-03-14T14:43:25.49Z</time>
      </trkpt>
      <trkpt lat="45.28039" lon="5.64972">
        <ele>236</ele>
        <time>2010-03-14T14:43:36.49Z</time>
      </trkpt>
      <trkpt lat="45.28044" lon="5.64984">
        <ele>236</ele>
        <time>2010-03-14T14:43:46.48Z</time>
      </trkpt>
      <trkpt lat="45.28042" lon="5.64988">
        <ele>236</ele>
        <time>2010-03-14T14:43:56.48Z</time>
      </trkpt>
      <trkpt lat="45.28037" lon="5.64996">
        <ele>237</ele>
        <time>2010-03-14T14:44:06.48Z</time>
      </trkpt>
      <trkpt lat="45.28031" lon="5.65009">
        <ele>242</ele>
        <time>2010-03-14T14:44:16.47Z</time>
      </trkpt>
      <trkpt lat="45.28038" lon="5.65043">
        <ele>243</ele>
        <time>2010-03-14T14:44:27.47Z</time>
      </trkpt>
      <trkpt lat="45.28044" lon="5.65072">
        <ele>244</ele>
        <time>2010-03-14T14:44:38.47Z</time>
      </trkpt>
      <trkpt lat="45.28039" lon="5.65087">
        <ele>258</ele>
        <time>2010-03-14T14:44:48.47Z</time>
      </trkpt>
      <trkpt lat="45.28023" lon="5.65077">
        <ele>246</ele>
        <time>2010-03-14T14:44:59.46Z</time>
      </trkpt>
      <trkpt lat="45.28018" lon="5.65068">
        <ele>246</ele>
        <time>2010-03-14T14:45:09.46Z</time>
      </trkpt>
      <trkpt lat="45.28021" lon="5.65079">
        <ele>247</ele>
        <time>2010-03-14T14:45:19.46Z</time>
      </trkpt>
      <trkpt lat="45.28028" lon="5.65104">
        <ele>260</ele>
        <time>2010-03-14T14:45:30.46Z</time>
      </trkpt>
      <trkpt lat="45.28033" lon="5.65127">
        <ele>264</ele>
        <time>2010-03-14T14:45:41.45Z</time>
      </trkpt>
      <trkpt lat="45.28052" lon="5.65141">
        <ele>267</ele>
        <time>2010-03-14T14:45:53.45Z</time>
      </trkpt>
      <trkpt lat="45.28059" lon="5.65159">
        <ele>271</ele>
        <time>2010-03-14T14:46:03.45Z</time>
      </trkpt>
      <trkpt lat="45.28074" lon="5.65191">
        <ele>292</ele>
        <time>2010-03-14T14:46:15.45Z</time>
      </trkpt>
      <trkpt lat="45.28079" lon="5.65212">
        <ele>299</ele>
        <time>2010-03-14T14:46:26.44Z</time>
      </trkpt>
      <trkpt lat="45.28086" lon="5.6523">
        <ele>315</ele>
        <time>2010-03-14T14:46:37.44Z</time>
      </trkpt>
      <trkpt lat="45.28084" lon="5.6527">
        <ele>332</ele>
        <time>2010-03-14T14:46:50.44Z</time>
      </trkpt>
      <trkpt lat="45.28091" lon="5.65283">
        <ele>334</ele>
        <time>2010-03-14T14:47:00.43Z</time>
      </trkpt>
      <trkpt lat="45.28094" lon="5.65283">
        <ele>334</ele>
        <time>2010-03-14T14:47:10.43Z</time>
      </trkpt>
      <trkpt lat="45.28099" lon="5.65277">
        <ele>334</ele>
        <time>2010-03-14T14:47:20.43Z</time>
      </trkpt>
      <trkpt lat="45.28101" lon="5.65269">
        <ele>334</ele>
        <time>2010-03-14T14:47:30.43Z</time>
      </trkpt>
      <trkpt lat="45.28093" lon="5.6526">
        <ele>330</ele>
        <time>2010-03-14T14:47:40.42Z</time>
      </trkpt>
      <trkpt lat="45.28085" lon="5.65246">
        <ele>322</ele>
        <time>2010-03-14T14:47:50.46Z</time>
      </trkpt>
      <trkpt lat="45.28073" lon="5.65223">
        <ele>302</ele>
        <time>2010-03-14T14:48:00.45Z</time>
      </trkpt>
      <trkpt lat="45.28063" lon="5.65212">
        <ele>297</ele>
        <time>2010-03-14T14:48:10.45Z</time>
      </trkpt>
      <trkpt lat="45.28052" lon="5.65205">
        <ele>294</ele>
        <time>2010-03-14T14:48:20.45Z</time>
      </trkpt>
      <trkpt lat="45.28046" lon="5.65196">
        <ele>292</ele>
        <time>2010-03-14T14:48:30.44Z</time>
      </trkpt>
      <trkpt lat="45.28034" lon="5.65176">
        <ele>288</ele>
        <time>2010-03-14T14:48:40.44Z</time>
      </trkpt>
      <trkpt lat="45.28021" lon="5.65157">
        <ele>269</ele>
        <time>2010-03-14T14:48:50.44Z</time>
      </trkpt>
      <trkpt lat="45.28009" lon="5.6514">
        <ele>267</ele>
        <time>2010-03-14T14:49:00.43Z</time>
      </trkpt>
      <trkpt lat="45.27998" lon="5.65135">
        <ele>265</ele>
        <time>2010-03-14T14:49:10.43Z</time>
      </trkpt>
      <trkpt lat="45.27983" lon="5.65133">
        <ele>264</ele>
        <time>2010-03-14T14:49:22.59Z</time>
      </trkpt>
      <trkpt lat="45.27972" lon="5.65145">
        <ele>265</ele>
        <time>2010-03-14T14:49:34.41Z</time>
      </trkpt>
      <trkpt lat="45.28013" lon="5.65173">
        <ele>283</ele>
        <time>2010-03-14T14:49:53.38Z</time>
      </trkpt>
      <trkpt lat="45.28015" lon="5.65179">
        <ele>284</ele>
        <time>2010-03-14T14:50:07.35Z</time>
      </trkpt>
      <trkpt lat="45.2798" lon="5.65212">
        <ele>282</ele>
        <time>2010-03-14T14:50:25.33Z</time>
      </trkpt>
      <trkpt lat="45.28002" lon="5.65189">
        <ele>285</ele>
        <time>2010-03-14T14:50:40.36Z</time>
      </trkpt>
      <trkpt lat="45.27979" lon="5.65205">
        <ele>281</ele>
        <time>2010-03-14T14:50:56.35Z</time>
      </trkpt>
      <trkpt lat="45.27959" lon="5.65215">
        <ele>282</ele>
        <time>2010-03-14T14:51:13.37Z</time>
      </trkpt>
      <trkpt lat="45.27948" lon="5.65272">
        <ele>298</ele>
        <time>2010-03-14T14:51:52.33Z</time>
      </trkpt>
      <trkpt lat="45.27972" lon="5.65318">
        <ele>303</ele>
        <time>2010-03-14T14:52:48.31Z</time>
      </trkpt>
      <trkpt lat="45.27955" lon="5.65328">
        <ele>304</ele>
        <time>2010-03-14T14:53:09.33Z</time>
      </trkpt>
      <trkpt lat="45.27937" lon="5.65324">
        <ele>305</ele>
        <time>2010-03-14T14:53:27.29Z</time>
      </trkpt>
      <trkpt lat="45.2792" lon="5.65335">
        <ele>312</ele>
        <time>2010-03-14T14:53:43.29Z</time>
      </trkpt>
      <trkpt lat="45.27916" lon="5.65338">
        <ele>312</ele>
        <time>2010-03-14T14:53:53.29Z</time>
      </trkpt>
      <trkpt lat="45.27914" lon="5.65342">
        <ele>313</ele>
        <time>2010-03-14T14:54:04.28Z</time>
      </trkpt>
      <trkpt lat="45.2789" lon="5.65357">
        <ele>316</ele>
        <time>2010-03-14T14:54:17.27Z</time>
      </trkpt>
      <trkpt lat="45.27892" lon="5.65344">
        <ele>314</ele>
        <time>2010-03-14T14:54:27.27Z</time>
      </trkpt>
      <trkpt lat="45.27892" lon="5.65363">
        <ele>316</ele>
        <time>2010-03-14T14:54:37.27Z</time>
      </trkpt>
      <trkpt lat="45.27892" lon="5.6539">
        <ele>321</ele>
        <time>2010-03-14T14:54:47.26Z</time>
      </trkpt>
      <trkpt lat="45.27897" lon="5.65412">
        <ele>325</ele>
        <time>2010-03-14T14:54:57.27Z</time>
      </trkpt>
      <trkpt lat="45.27888" lon="5.6543">
        <ele>337</ele>
        <time>2010-03-14T14:55:07.26Z</time>
      </trkpt>
      <trkpt lat="45.27872" lon="5.65439">
        <ele>337</ele>
        <time>2010-03-14T14:55:17.25Z</time>
      </trkpt>
      <trkpt lat="45.27855" lon="5.65444">
        <ele>336</ele>
        <time>2010-03-14T14:55:27.26Z</time>
      </trkpt>
      <trkpt lat="45.27843" lon="5.65445">
        <ele>335</ele>
        <time>2010-03-14T14:55:37.25Z</time>
      </trkpt>
      <trkpt lat="45.27828" lon="5.65458">
        <ele>328</ele>
        <time>2010-03-14T14:55:48.24Z</time>
      </trkpt>
      <trkpt lat="45.27812" lon="5.65476">
        <ele>330</ele>
        <time>2010-03-14T14:55:58.24Z</time>
      </trkpt>
      <trkpt lat="45.27799" lon="5.65495">
        <ele>330</ele>
        <time>2010-03-14T14:56:08.24Z</time>
      </trkpt>
      <trkpt lat="45.2779" lon="5.65513">
        <ele>339</ele>
        <time>2010-03-14T14:56:18.24Z</time>
      </trkpt>
      <trkpt lat="45.27792" lon="5.65538">
        <ele>341</ele>
        <time>2010-03-14T14:56:28.24Z</time>
      </trkpt>
      <trkpt lat="45.2779" lon="5.65562">
        <ele>343</ele>
        <time>2010-03-14T14:56:38.22Z</time>
      </trkpt>
      <trkpt lat="45.27791" lon="5.65563">
        <ele>343</ele>
        <time>2010-03-14T14:56:48.22Z</time>
      </trkpt>
      <trkpt lat="45.27792" lon="5.65564">
        <ele>343</ele>
        <time>2010-03-14T14:56:58.21Z</time>
      </trkpt>
      <trkpt lat="45.27792" lon="5.65564">
        <ele>343</ele>
        <time>2010-03-14T14:57:08.22Z</time>
      </trkpt>
      <trkpt lat="45.27793" lon="5.65564">
        <ele>343</ele>
        <time>2010-03-14T14:57:18.21Z</time>
      </trkpt>
      <trkpt lat="45.27793" lon="5.65564">
        <ele>343</ele>
        <time>2010-03-14T14:57:29.21Z</time>
      </trkpt>
      <trkpt lat="45.27793" lon="5.65565">
        <ele>343</ele>
        <time>2010-03-14T14:57:39.21Z</time>
      </trkpt>
      <trkpt lat="45.27793" lon="5.65565">
        <ele>344</ele>
        <time>2010-03-14T14:57:49.2Z</time>
      </trkpt>
      <trkpt lat="45.27792" lon="5.65566">
        <ele>343</ele>
        <time>2010-03-14T14:57:59.19Z</time>
      </trkpt>
      <trkpt lat="45.27792" lon="5.65567">
        <ele>344</ele>
        <time>2010-03-14T14:58:09.19Z</time>
      </trkpt>
      <trkpt lat="45.27792" lon="5.65567">
        <ele>344</ele>
        <time>2010-03-14T14:58:19.21Z</time>
      </trkpt>
      <trkpt lat="45.27792" lon="5.65569">
        <ele>344</ele>
        <time>2010-03-14T14:58:29.19Z</time>
      </trkpt>
      <trkpt lat="45.27784" lon="5.65565">
        <ele>342</ele>
        <time>2010-03-14T14:58:41.18Z</time>
      </trkpt>
      <trkpt lat="45.27784" lon="5.65566">
        <ele>342</ele>
        <time>2010-03-14T14:58:52.17Z</time>
      </trkpt>
      <trkpt lat="45.27791" lon="5.65574">
        <ele>344</ele>
        <time>2010-03-14T14:59:02.18Z</time>
      </trkpt>
      <trkpt lat="45.278" lon="5.656">
        <ele>353</ele>
        <time>2010-03-14T14:59:12.17Z</time>
      </trkpt>
      <trkpt lat="45.2781" lon="5.65621">
        <ele>355</ele>
        <time>2010-03-14T14:59:22.16Z</time>
      </trkpt>
      <trkpt lat="45.27827" lon="5.65626">
        <ele>356</ele>
        <time>2010-03-14T14:59:32.16Z</time>
      </trkpt>
      <trkpt lat="45.27844" lon="5.65618">
        <ele>364</ele>
        <time>2010-03-14T14:59:42.15Z</time>
      </trkpt>
      <trkpt lat="45.27861" lon="5.6561">
        <ele>365</ele>
        <time>2010-03-14T14:59:52.16Z</time>
      </trkpt>
      <trkpt lat="45.27872" lon="5.65601">
        <ele>366</ele>
        <time>2010-03-14T15:00:02.15Z</time>
      </trkpt>
      <trkpt lat="45.27884" lon="5.65587">
        <ele>368</ele>
        <time>2010-03-14T15:00:12.14Z</time>
      </trkpt>
      <trkpt lat="45.27896" lon="5.65576">
        <ele>363</ele>
        <time>2010-03-14T15:00:22.14Z</time>
      </trkpt>
      <trkpt lat="45.27909" lon="5.65581">
        <ele>368</ele>
        <time>2010-03-14T15:00:32.13Z</time>
      </trkpt>
      <trkpt lat="45.27924" lon="5.65588">
        <ele>375</ele>
        <time>2010-03-14T15:00:42.14Z</time>
      </trkpt>
      <trkpt lat="45.27937" lon="5.65602">
        <ele>380</ele>
        <time>2010-03-14T15:00:52.13Z</time>
      </trkpt>
      <trkpt lat="45.27949" lon="5.65606">
        <ele>382</ele>
        <time>2010-03-14T15:01:02.13Z</time>
      </trkpt>
      <trkpt lat="45.27961" lon="5.65607">
        <ele>384</ele>
        <time>2010-03-14T15:01:12.12Z</time>
      </trkpt>
      <trkpt lat="45.27977" lon="5.65609">
        <ele>385</ele>
        <time>2010-03-14T15:01:22.12Z</time>
      </trkpt>
      <trkpt lat="45.27992" lon="5.65606">
        <ele>386</ele>
        <time>2010-03-14T15:01:32.12Z</time>
      </trkpt>
      <trkpt lat="45.28003" lon="5.65602">
        <ele>391</ele>
        <time>2010-03-14T15:01:42.12Z</time>
      </trkpt>
      <trkpt lat="45.28016" lon="5.65601">
        <ele>391</ele>
        <time>2010-03-14T15:01:52.12Z</time>
      </trkpt>
      <trkpt lat="45.28029" lon="5.65604">
        <ele>392</ele>
        <time>2010-03-14T15:02:02.11Z</time>
      </trkpt>
      <trkpt lat="45.28043" lon="5.65613">
        <ele>393</ele>
        <time>2010-03-14T15:02:12.11Z</time>
      </trkpt>
      <trkpt lat="45.28055" lon="5.65622">
        <ele>394</ele>
        <time>2010-03-14T15:02:22.1Z</time>
      </trkpt>
      <trkpt lat="45.28063" lon="5.65635">
        <ele>395</ele>
        <time>2010-03-14T15:02:32.1Z</time>
      </trkpt>
      <trkpt lat="45.28073" lon="5.65646">
        <ele>397</ele>
        <time>2010-03-14T15:02:42.1Z</time>
      </trkpt>
      <trkpt lat="45.28087" lon="5.65654">
        <ele>398</ele>
        <time>2010-03-14T15:02:52.09Z</time>
      </trkpt>
      <trkpt lat="45.28098" lon="5.65668">
        <ele>401</ele>
        <time>2010-03-14T15:03:02.08Z</time>
      </trkpt>
      <trkpt lat="45.28109" lon="5.65681">
        <ele>401</ele>
        <time>2010-03-14T15:03:12.08Z</time>
      </trkpt>
      <trkpt lat="45.28119" lon="5.65696">
        <ele>401</ele>
        <time>2010-03-14T15:03:22.09Z</time>
      </trkpt>
      <trkpt lat="45.28124" lon="5.65711">
        <ele>401</ele>
        <time>2010-03-14T15:03:32.07Z</time>
      </trkpt>
      <trkpt lat="45.28123" lon="5.6573">
        <ele>402</ele>
        <time>2010-03-14T15:03:42.08Z</time>
      </trkpt>
      <trkpt lat="45.28127" lon="5.65749">
        <ele>403</ele>
        <time>2010-03-14T15:03:52.07Z</time>
      </trkpt>
      <trkpt lat="45.2814" lon="5.65766">
        <ele>407</ele>
        <time>2010-03-14T15:04:02.06Z</time>
      </trkpt>
      <trkpt lat="45.28155" lon="5.65784">
        <ele>408</ele>
        <time>2010-03-14T15:04:12.06Z</time>
      </trkpt>
      <trkpt lat="45.28171" lon="5.65805">
        <ele>412</ele>
        <time>2010-03-14T15:04:22.06Z</time>
      </trkpt>
      <trkpt lat="45.28187" lon="5.65827">
        <ele>413</ele>
        <time>2010-03-14T15:04:32.05Z</time>
      </trkpt>
      <trkpt lat="45.282" lon="5.65852">
        <ele>417</ele>
        <time>2010-03-14T15:04:42.06Z</time>
      </trkpt>
      <trkpt lat="45.28211" lon="5.65875">
        <ele>418</ele>
        <time>2010-03-14T15:04:52.05Z</time>
      </trkpt>
      <trkpt lat="45.28222" lon="5.65897">
        <ele>419</ele>
        <time>2010-03-14T15:05:02.05Z</time>
      </trkpt>
      <trkpt lat="45.28234" lon="5.65918">
        <ele>425</ele>
        <time>2010-03-14T15:05:12.05Z</time>
      </trkpt>
      <trkpt lat="45.28246" lon="5.65938">
        <ele>425</ele>
        <time>2010-03-14T15:05:22.03Z</time>
      </trkpt>
      <trkpt lat="45.28256" lon="5.65959">
        <ele>432</ele>
        <time>2010-03-14T15:05:32.04Z</time>
      </trkpt>
      <trkpt lat="45.28268" lon="5.65972">
        <ele>433</ele>
        <time>2010-03-14T15:05:42.04Z</time>
      </trkpt>
      <trkpt lat="45.28277" lon="5.65989">
        <ele>434</ele>
        <time>2010-03-14T15:05:52.03Z</time>
      </trkpt>
      <trkpt lat="45.28286" lon="5.66006">
        <ele>439</ele>
        <time>2010-03-14T15:06:04.02Z</time>
      </trkpt>
      <trkpt lat="45.28297" lon="5.66021">
        <ele>442</ele>
        <time>2010-03-14T15:06:14.02Z</time>
      </trkpt>
      <trkpt lat="45.28306" lon="5.66035">
        <ele>443</ele>
        <time>2010-03-14T15:06:24.02Z</time>
      </trkpt>
      <trkpt lat="45.28316" lon="5.66049">
        <ele>445</ele>
        <time>2010-03-14T15:06:35.02Z</time>
      </trkpt>
      <trkpt lat="45.28326" lon="5.66062">
        <ele>446</ele>
        <time>2010-03-14T15:06:45.01Z</time>
      </trkpt>
      <trkpt lat="45.28335" lon="5.66077">
        <ele>453</ele>
        <time>2010-03-14T15:06:55.01Z</time>
      </trkpt>
      <trkpt lat="45.28344" lon="5.6609">
        <ele>457</ele>
        <time>2010-03-14T15:07:05.01Z</time>
      </trkpt>
      <trkpt lat="45.28355" lon="5.66103">
        <ele>461</ele>
        <time>2010-03-14T15:07:15.01Z</time>
      </trkpt>
      <trkpt lat="45.28366" lon="5.66116">
        <ele>463</ele>
        <time>2010-03-14T15:07:25Z</time>
      </trkpt>
      <trkpt lat="45.28377" lon="5.66128">
        <ele>464</ele>
        <time>2010-03-14T15:07:35Z</time>
      </trkpt>
      <trkpt lat="45.28388" lon="5.6614">
        <ele>465</ele>
        <time>2010-03-14T15:07:44.99Z</time>
      </trkpt>
      <trkpt lat="45.284" lon="5.66149">
        <ele>465</ele>
        <time>2010-03-14T15:07:54.98Z</time>
      </trkpt>
      <trkpt lat="45.28414" lon="5.66157">
        <ele>466</ele>
        <time>2010-03-14T15:08:04.99Z</time>
      </trkpt>
      <trkpt lat="45.28428" lon="5.6616">
        <ele>473</ele>
        <time>2010-03-14T15:08:14.98Z</time>
      </trkpt>
      <trkpt lat="45.28441" lon="5.66176">
        <ele>480</ele>
        <time>2010-03-14T15:08:24.97Z</time>
      </trkpt>
      <trkpt lat="45.2844" lon="5.66195">
        <ele>483</ele>
        <time>2010-03-14T15:08:34.97Z</time>
      </trkpt>
      <trkpt lat="45.28431" lon="5.66211">
        <ele>485</ele>
        <time>2010-03-14T15:08:44.97Z</time>
      </trkpt>
      <trkpt lat="45.28419" lon="5.66203">
        <ele>483</ele>
        <time>2010-03-14T15:08:54.97Z</time>
      </trkpt>
      <trkpt lat="45.2841" lon="5.6619">
        <ele>478</ele>
        <time>2010-03-14T15:09:04.96Z</time>
      </trkpt>
      <trkpt lat="45.28402" lon="5.66187">
        <ele>478</ele>
        <time>2010-03-14T15:09:14.96Z</time>
      </trkpt>
      <trkpt lat="45.28389" lon="5.6618">
        <ele>478</ele>
        <time>2010-03-14T15:09:24.95Z</time>
      </trkpt>
      <trkpt lat="45.28376" lon="5.66167">
        <ele>478</ele>
        <time>2010-03-14T15:09:34.95Z</time>
      </trkpt>
      <trkpt lat="45.28363" lon="5.66169">
        <ele>479</ele>
        <time>2010-03-14T15:09:44.94Z</time>
      </trkpt>
      <trkpt lat="45.28351" lon="5.66164">
        <ele>468</ele>
        <time>2010-03-14T15:09:54.95Z</time>
      </trkpt>
      <trkpt lat="45.2834" lon="5.66158">
        <ele>470</ele>
        <time>2010-03-14T15:10:04.93Z</time>
      </trkpt>
      <trkpt lat="45.28326" lon="5.66158">
        <ele>469</ele>
        <time>2010-03-14T15:10:14.93Z</time>
      </trkpt>
      <trkpt lat="45.28313" lon="5.66167">
        <ele>480</ele>
        <time>2010-03-14T15:10:24.94Z</time>
      </trkpt>
      <trkpt lat="45.28299" lon="5.66175">
        <ele>482</ele>
        <time>2010-03-14T15:10:34.94Z</time>
      </trkpt>
      <trkpt lat="45.28285" lon="5.66177">
        <ele>483</ele>
        <time>2010-03-14T15:10:44.92Z</time>
      </trkpt>
      <trkpt lat="45.28271" lon="5.66174">
        <ele>482</ele>
        <time>2010-03-14T15:10:54.93Z</time>
      </trkpt>
      <trkpt lat="45.28258" lon="5.66166">
        <ele>472</ele>
        <time>2010-03-14T15:11:04.92Z</time>
      </trkpt>
      <trkpt lat="45.28251" lon="5.66177">
        <ele>480</ele>
        <time>2010-03-14T15:11:14.92Z</time>
      </trkpt>
      <trkpt lat="45.28261" lon="5.66206">
        <ele>487</ele>
        <time>2010-03-14T15:11:31.91Z</time>
      </trkpt>
      <trkpt lat="45.28273" lon="5.66228">
        <ele>490</ele>
        <time>2010-03-14T15:11:45.91Z</time>
      </trkpt>
      <trkpt lat="45.28274" lon="5.66247">
        <ele>493</ele>
        <time>2010-03-14T15:11:56.92Z</time>
      </trkpt>
      <trkpt lat="45.28279" lon="5.66267">
        <ele>507</ele>
        <time>2010-03-14T15:12:07.9Z</time>
      </trkpt>
      <trkpt lat="45.2829" lon="5.66283">
        <ele>509</ele>
        <time>2010-03-14T15:12:17.91Z</time>
      </trkpt>
      <trkpt lat="45.28302" lon="5.66291">
        <ele>510</ele>
        <time>2010-03-14T15:12:27.9Z</time>
      </trkpt>
      <trkpt lat="45.28312" lon="5.66291">
        <ele>510</ele>
        <time>2010-03-14T15:12:37.9Z</time>
      </trkpt>
      <trkpt lat="45.28321" lon="5.66271">
        <ele>507</ele>
        <time>2010-03-14T15:12:47.9Z</time>
      </trkpt>
      <trkpt lat="45.28329" lon="5.6626">
        <ele>503</ele>
        <time>2010-03-14T15:12:57.88Z</time>
      </trkpt>
      <trkpt lat="45.2833" lon="5.66254">
        <ele>502</ele>
        <time>2010-03-14T15:13:07.88Z</time>
      </trkpt>
      <trkpt lat="45.28335" lon="5.66255">
        <ele>501</ele>
        <time>2010-03-14T15:13:17.9Z</time>
      </trkpt>
      <trkpt lat="45.28336" lon="5.66258">
        <ele>502</ele>
        <time>2010-03-14T15:13:27.88Z</time>
      </trkpt>
      <trkpt lat="45.28337" lon="5.66257">
        <ele>502</ele>
        <time>2010-03-14T15:13:37.88Z</time>
      </trkpt>
      <trkpt lat="45.28337" lon="5.66257">
        <ele>502</ele>
        <time>2010-03-14T15:13:47.88Z</time>
      </trkpt>
      <trkpt lat="45.28338" lon="5.66253">
        <ele>502</ele>
        <time>2010-03-14T15:13:57.87Z</time>
      </trkpt>
      <trkpt lat="45.2834" lon="5.66254">
        <ele>502</ele>
        <time>2010-03-14T15:14:07.87Z</time>
      </trkpt>
      <trkpt lat="45.28339" lon="5.66254">
        <ele>502</ele>
        <time>2010-03-14T15:14:17.86Z</time>
      </trkpt>
      <trkpt lat="45.28343" lon="5.66252">
        <ele>503</ele>
        <time>2010-03-14T15:14:27.86Z</time>
      </trkpt>
      <trkpt lat="45.28344" lon="5.6625">
        <ele>503</ele>
        <time>2010-03-14T15:14:37.85Z</time>
      </trkpt>
      <trkpt lat="45.28342" lon="5.66251">
        <ele>502</ele>
        <time>2010-03-14T15:14:47.85Z</time>
      </trkpt>
      <trkpt lat="45.28342" lon="5.6625">
        <ele>496</ele>
        <time>2010-03-14T15:14:57.85Z</time>
      </trkpt>
      <trkpt lat="45.28343" lon="5.66248">
        <ele>495</ele>
        <time>2010-03-14T15:15:07.84Z</time>
      </trkpt>
      <trkpt lat="45.28345" lon="5.66247">
        <ele>494</ele>
        <time>2010-03-14T15:15:17.83Z</time>
      </trkpt>
      <trkpt lat="45.28346" lon="5.66246">
        <ele>494</ele>
        <time>2010-03-14T15:15:27.84Z</time>
      </trkpt>
      <trkpt lat="45.28345" lon="5.66245">
        <ele>494</ele>
        <time>2010-03-14T15:15:37.83Z</time>
      </trkpt>
      <trkpt lat="45.28345" lon="5.66246">
        <ele>494</ele>
        <time>2010-03-14T15:15:47.83Z</time>
      </trkpt>
      <trkpt lat="45.28348" lon="5.66246">
        <ele>493</ele>
        <time>2010-03-14T15:15:57.83Z</time>
      </trkpt>
      <trkpt lat="45.28349" lon="5.66247">
        <ele>493</ele>
        <time>2010-03-14T15:16:07.84Z</time>
      </trkpt>
      <trkpt lat="45.28349" lon="5.66247">
        <ele>493</ele>
        <time>2010-03-14T15:16:17.81Z</time>
      </trkpt>
      <trkpt lat="45.28349" lon="5.66247">
        <ele>493</ele>
        <time>2010-03-14T15:16:27.81Z</time>
      </trkpt>
      <trkpt lat="45.28349" lon="5.66247">
        <ele>493</ele>
        <time>2010-03-14T15:16:37.83Z</time>
      </trkpt>
      <trkpt lat="45.2835" lon="5.66247">
        <ele>493</ele>
        <time>2010-03-14T15:16:47.81Z</time>
      </trkpt>
      <trkpt lat="45.28348" lon="5.66245">
        <ele>493</ele>
        <time>2010-03-14T15:16:57.8Z</time>
      </trkpt>
      <trkpt lat="45.28348" lon="5.66246">
        <ele>493</ele>
        <time>2010-03-14T15:17:07.8Z</time>
      </trkpt>
      <trkpt lat="45.28349" lon="5.66252">
        <ele>503</ele>
        <time>2010-03-14T15:17:17.8Z</time>
      </trkpt>
      <trkpt lat="45.28358" lon="5.66263">
        <ele>505</ele>
        <time>2010-03-14T15:17:27.79Z</time>
      </trkpt>
      <trkpt lat="45.28367" lon="5.66275">
        <ele>506</ele>
        <time>2010-03-14T15:17:37.79Z</time>
      </trkpt>
      <trkpt lat="45.28374" lon="5.66282">
        <ele>507</ele>
        <time>2010-03-14T15:17:47.77Z</time>
      </trkpt>
      <trkpt lat="45.28384" lon="5.66287">
        <ele>508</ele>
        <time>2010-03-14T15:17:57.77Z</time>
      </trkpt>
      <trkpt lat="45.28388" lon="5.66305">
        <ele>510</ele>
        <time>2010-03-14T15:18:07.76Z</time>
      </trkpt>
      <trkpt lat="45.28388" lon="5.66319">
        <ele>511</ele>
        <time>2010-03-14T15:18:17.77Z</time>
      </trkpt>
      <trkpt lat="45.28385" lon="5.66334">
        <ele>524</ele>
        <time>2010-03-14T15:18:27.77Z</time>
      </trkpt>
      <trkpt lat="45.28384" lon="5.66339">
        <ele>524</ele>
        <time>2010-03-14T15:18:37.76Z</time>
      </trkpt>
      <trkpt lat="45.2839" lon="5.66348">
        <ele>524</ele>
        <time>2010-03-14T15:18:47.76Z</time>
      </trkpt>
      <trkpt lat="45.28394" lon="5.66355">
        <ele>525</ele>
        <time>2010-03-14T15:18:57.76Z</time>
      </trkpt>
      <trkpt lat="45.28396" lon="5.66355">
        <ele>525</ele>
        <time>2010-03-14T15:19:07.75Z</time>
      </trkpt>
      <trkpt lat="45.28397" lon="5.66356">
        <ele>525</ele>
        <time>2010-03-14T15:19:17.75Z</time>
      </trkpt>
      <trkpt lat="45.28396" lon="5.66357">
        <ele>525</ele>
        <time>2010-03-14T15:19:27.74Z</time>
      </trkpt>
      <trkpt lat="45.28395" lon="5.66362">
        <ele>525</ele>
        <time>2010-03-14T15:19:37.74Z</time>
      </trkpt>
      <trkpt lat="45.28394" lon="5.6637">
        <ele>527</ele>
        <time>2010-03-14T15:19:47.73Z</time>
      </trkpt>
      <trkpt lat="45.28389" lon="5.66379">
        <ele>528</ele>
        <time>2010-03-14T15:19:57.73Z</time>
      </trkpt>
      <trkpt lat="45.28388" lon="5.66387">
        <ele>529</ele>
        <time>2010-03-14T15:20:07.73Z</time>
      </trkpt>
      <trkpt lat="45.2839" lon="5.66396">
        <ele>529</ele>
        <time>2010-03-14T15:20:17.72Z</time>
      </trkpt>
      <trkpt lat="45.2839" lon="5.66398">
        <ele>530</ele>
        <time>2010-03-14T15:20:27.72Z</time>
      </trkpt>
      <trkpt lat="45.28389" lon="5.66399">
        <ele>530</ele>
        <time>2010-03-14T15:20:37.71Z</time>
      </trkpt>
      <trkpt lat="45.28388" lon="5.66412">
        <ele>531</ele>
        <time>2010-03-14T15:20:47.72Z</time>
      </trkpt>
      <trkpt lat="45.28388" lon="5.66427">
        <ele>539</ele>
        <time>2010-03-14T15:20:57.72Z</time>
      </trkpt>
      <trkpt lat="45.28387" lon="5.66435">
        <ele>540</ele>
        <time>2010-03-14T15:21:09.7Z</time>
      </trkpt>
      <trkpt lat="45.28393" lon="5.66472">
        <ele>542</ele>
        <time>2010-03-14T15:21:22.7Z</time>
      </trkpt>
      <trkpt lat="45.28395" lon="5.66476">
        <ele>542</ele>
        <time>2010-03-14T15:21:32.69Z</time>
      </trkpt>
      <trkpt lat="45.28394" lon="5.6648">
        <ele>542</ele>
        <time>2010-03-14T15:21:42.68Z</time>
      </trkpt>
      <trkpt lat="45.28391" lon="5.66491">
        <ele>542</ele>
        <time>2010-03-14T15:21:52.68Z</time>
      </trkpt>
      <trkpt lat="45.28384" lon="5.66504">
        <ele>549</ele>
        <time>2010-03-14T15:22:02.68Z</time>
      </trkpt>
      <trkpt lat="45.28378" lon="5.66514">
        <ele>550</ele>
        <time>2010-03-14T15:22:12.68Z</time>
      </trkpt>
      <trkpt lat="45.28373" lon="5.66517">
        <ele>550</ele>
        <time>2010-03-14T15:22:22.67Z</time>
      </trkpt>
      <trkpt lat="45.28368" lon="5.66524">
        <ele>551</ele>
        <time>2010-03-14T15:22:32.67Z</time>
      </trkpt>
      <trkpt lat="45.28365" lon="5.66534">
        <ele>551</ele>
        <time>2010-03-14T15:22:42.66Z</time>
      </trkpt>
      <trkpt lat="45.28361" lon="5.66545">
        <ele>552</ele>
        <time>2010-03-14T15:22:53.66Z</time>
      </trkpt>
      <trkpt lat="45.28353" lon="5.66554">
        <ele>554</ele>
        <time>2010-03-14T15:23:05.66Z</time>
      </trkpt>
      <trkpt lat="45.2835" lon="5.6656">
        <ele>555</ele>
        <time>2010-03-14T15:23:15.65Z</time>
      </trkpt>
      <trkpt lat="45.28351" lon="5.66568">
        <ele>556</ele>
        <time>2010-03-14T15:23:25.65Z</time>
      </trkpt>
      <trkpt lat="45.2835" lon="5.66569">
        <ele>556</ele>
        <time>2010-03-14T15:23:35.65Z</time>
      </trkpt>
      <trkpt lat="45.2835" lon="5.66568">
        <ele>556</ele>
        <time>2010-03-14T15:23:45.64Z</time>
      </trkpt>
      <trkpt lat="45.2835" lon="5.66568">
        <ele>556</ele>
        <time>2010-03-14T15:23:55.64Z</time>
      </trkpt>
      <trkpt lat="45.2835" lon="5.66568">
        <ele>556</ele>
        <time>2010-03-14T15:24:05.63Z</time>
      </trkpt>
      <trkpt lat="45.2835" lon="5.66568">
        <ele>556</ele>
        <time>2010-03-14T15:24:15.65Z</time>
      </trkpt>
      <trkpt lat="45.2835" lon="5.66567">
        <ele>556</ele>
        <time>2010-03-14T15:24:25.62Z</time>
      </trkpt>
      <trkpt lat="45.28351" lon="5.66568">
        <ele>556</ele>
        <time>2010-03-14T15:24:35.62Z</time>
      </trkpt>
      <trkpt lat="45.28351" lon="5.66578">
        <ele>557</ele>
        <time>2010-03-14T15:24:45.61Z</time>
      </trkpt>
      <trkpt lat="45.28349" lon="5.66589">
        <ele>563</ele>
        <time>2010-03-14T15:24:55.61Z</time>
      </trkpt>
      <trkpt lat="45.28353" lon="5.66598">
        <ele>563</ele>
        <time>2010-03-14T15:25:05.6Z</time>
      </trkpt>
      <trkpt lat="45.28357" lon="5.66613">
        <ele>563</ele>
        <time>2010-03-14T15:25:15.6Z</time>
      </trkpt>
      <trkpt lat="45.28365" lon="5.66628">
        <ele>564</ele>
        <time>2010-03-14T15:25:25.6Z</time>
      </trkpt>
      <trkpt lat="45.2837" lon="5.66643">
        <ele>565</ele>
        <time>2010-03-14T15:25:35.58Z</time>
      </trkpt>
      <trkpt lat="45.28374" lon="5.66659">
        <ele>566</ele>
        <time>2010-03-14T15:25:45.59Z</time>
      </trkpt>
      <trkpt lat="45.28377" lon="5.66672">
        <ele>578</ele>
        <time>2010-03-14T15:25:55.59Z</time>
      </trkpt>
      <trkpt lat="45.28377" lon="5.66682">
        <ele>579</ele>
        <time>2010-03-14T15:26:05.58Z</time>
      </trkpt>
      <trkpt lat="45.28379" lon="5.66696">
        <ele>580</ele>
        <time>2010-03-14T15:26:15.57Z</time>
      </trkpt>
      <trkpt lat="45.28384" lon="5.66712">
        <ele>582</ele>
        <time>2010-03-14T15:26:25.58Z</time>
      </trkpt>
      <trkpt lat="45.28386" lon="5.66725">
        <ele>584</ele>
        <time>2010-03-14T15:26:35.57Z</time>
      </trkpt>
      <trkpt lat="45.28388" lon="5.66731">
        <ele>585</ele>
        <time>2010-03-14T15:26:45.57Z</time>
      </trkpt>
      <trkpt lat="45.28391" lon="5.66739">
        <ele>586</ele>
        <time>2010-03-14T15:26:55.55Z</time>
      </trkpt>
      <trkpt lat="45.28397" lon="5.66743">
        <ele>587</ele>
        <time>2010-03-14T15:27:05.55Z</time>
      </trkpt>
      <trkpt lat="45.28402" lon="5.66751">
        <ele>598</ele>
        <time>2010-03-14T15:27:15.55Z</time>
      </trkpt>
      <trkpt lat="45.28408" lon="5.66761">
        <ele>598</ele>
        <time>2010-03-14T15:27:25.55Z</time>
      </trkpt>
      <trkpt lat="45.28413" lon="5.66769">
        <ele>600</ele>
        <time>2010-03-14T15:27:35.55Z</time>
      </trkpt>
      <trkpt lat="45.28417" lon="5.66774">
        <ele>600</ele>
        <time>2010-03-14T15:27:45.55Z</time>
      </trkpt>
      <trkpt lat="45.28421" lon="5.66776">
        <ele>600</ele>
        <time>2010-03-14T15:27:55.54Z</time>
      </trkpt>
      <trkpt lat="45.2843" lon="5.66797">
        <ele>605</ele>
        <time>2010-03-14T15:28:06.53Z</time>
      </trkpt>
      <trkpt lat="45.2844" lon="5.66799">
        <ele>605</ele>
        <time>2010-03-14T15:28:16.52Z</time>
      </trkpt>
      <trkpt lat="45.28449" lon="5.66796">
        <ele>604</ele>
        <time>2010-03-14T15:28:26.52Z</time>
      </trkpt>
      <trkpt lat="45.2846" lon="5.668">
        <ele>604</ele>
        <time>2010-03-14T15:28:36.52Z</time>
      </trkpt>
      <trkpt lat="45.28467" lon="5.66801">
        <ele>603</ele>
        <time>2010-03-14T15:28:46.52Z</time>
      </trkpt>
      <trkpt lat="45.28468" lon="5.66801">
        <ele>603</ele>
        <time>2010-03-14T15:28:56.51Z</time>
      </trkpt>
      <trkpt lat="45.2847" lon="5.66802">
        <ele>603</ele>
        <time>2010-03-14T15:29:06.5Z</time>
      </trkpt>
      <trkpt lat="45.28467" lon="5.66808">
        <ele>604</ele>
        <time>2010-03-14T15:29:16.5Z</time>
      </trkpt>
      <trkpt lat="45.28464" lon="5.66816">
        <ele>605</ele>
        <time>2010-03-14T15:29:26.5Z</time>
      </trkpt>
      <trkpt lat="45.28464" lon="5.66827">
        <ele>606</ele>
        <time>2010-03-14T15:29:36.5Z</time>
      </trkpt>
      <trkpt lat="45.28466" lon="5.66837">
        <ele>620</ele>
        <time>2010-03-14T15:29:46.49Z</time>
      </trkpt>
      <trkpt lat="45.28469" lon="5.66852">
        <ele>621</ele>
        <time>2010-03-14T15:29:56.48Z</time>
      </trkpt>
      <trkpt lat="45.28471" lon="5.6687">
        <ele>623</ele>
        <time>2010-03-14T15:30:07.48Z</time>
      </trkpt>
      <trkpt lat="45.28472" lon="5.66885">
        <ele>625</ele>
        <time>2010-03-14T15:30:17.47Z</time>
      </trkpt>
      <trkpt lat="45.28482" lon="5.66914">
        <ele>625</ele>
        <time>2010-03-14T15:30:30.47Z</time>
      </trkpt>
      <trkpt lat="45.28492" lon="5.66935">
        <ele>636</ele>
        <time>2010-03-14T15:30:41.47Z</time>
      </trkpt>
      <trkpt lat="45.28498" lon="5.66958">
        <ele>641</ele>
        <time>2010-03-14T15:30:51.45Z</time>
      </trkpt>
      <trkpt lat="45.28503" lon="5.66967">
        <ele>636</ele>
        <time>2010-03-14T15:31:01.46Z</time>
      </trkpt>
      <trkpt lat="45.28505" lon="5.6697">
        <ele>636</ele>
        <time>2010-03-14T15:31:11.45Z</time>
      </trkpt>
      <trkpt lat="45.28499" lon="5.66971">
        <ele>643</ele>
        <time>2010-03-14T15:31:22.45Z</time>
      </trkpt>
      <trkpt lat="45.28497" lon="5.66974">
        <ele>643</ele>
        <time>2010-03-14T15:31:32.45Z</time>
      </trkpt>
      <trkpt lat="45.28499" lon="5.66973">
        <ele>643</ele>
        <time>2010-03-14T15:31:43.44Z</time>
      </trkpt>
      <trkpt lat="45.28501" lon="5.66978">
        <ele>637</ele>
        <time>2010-03-14T15:31:55.43Z</time>
      </trkpt>
      <trkpt lat="45.28506" lon="5.66977">
        <ele>637</ele>
        <time>2010-03-14T15:32:07.46Z</time>
      </trkpt>
      <trkpt lat="45.28508" lon="5.66975">
        <ele>637</ele>
        <time>2010-03-14T15:32:17.43Z</time>
      </trkpt>
      <trkpt lat="45.28511" lon="5.66973">
        <ele>636</ele>
        <time>2010-03-14T15:32:27.43Z</time>
      </trkpt>
      <trkpt lat="45.28514" lon="5.66971">
        <ele>636</ele>
        <time>2010-03-14T15:32:37.42Z</time>
      </trkpt>
      <trkpt lat="45.28515" lon="5.66968">
        <ele>636</ele>
        <time>2010-03-14T15:32:48.41Z</time>
      </trkpt>
      <trkpt lat="45.28514" lon="5.66969">
        <ele>636</ele>
        <time>2010-03-14T15:32:58.42Z</time>
      </trkpt>
      <trkpt lat="45.28494" lon="5.66973">
        <ele>643</ele>
        <time>2010-03-14T15:33:10.41Z</time>
      </trkpt>
      <trkpt lat="45.28496" lon="5.66969">
        <ele>643</ele>
        <time>2010-03-14T15:33:20.4Z</time>
      </trkpt>
      <trkpt lat="45.28497" lon="5.66968">
        <ele>642</ele>
        <time>2010-03-14T15:33:30.39Z</time>
      </trkpt>
      <trkpt lat="45.28497" lon="5.66968">
        <ele>642</ele>
        <time>2010-03-14T15:33:40.4Z</time>
      </trkpt>
      <trkpt lat="45.285" lon="5.66963">
        <ele>642</ele>
        <time>2010-03-14T15:33:51.4Z</time>
      </trkpt>
      <trkpt lat="45.28497" lon="5.66963">
        <ele>642</ele>
        <time>2010-03-14T15:34:02.39Z</time>
      </trkpt>
      <trkpt lat="45.28488" lon="5.66969">
        <ele>643</ele>
        <time>2010-03-14T15:34:13.38Z</time>
      </trkpt>
      <trkpt lat="45.28499" lon="5.66967">
        <ele>642</ele>
        <time>2010-03-14T15:34:24.37Z</time>
      </trkpt>
      <trkpt lat="45.28506" lon="5.66969">
        <ele>636</ele>
        <time>2010-03-14T15:34:36.37Z</time>
      </trkpt>
      <trkpt lat="45.28508" lon="5.66973">
        <ele>636</ele>
        <time>2010-03-14T15:34:46.37Z</time>
      </trkpt>
      <trkpt lat="45.28506" lon="5.66976">
        <ele>637</ele>
        <time>2010-03-14T15:34:56.37Z</time>
      </trkpt>
      <trkpt lat="45.28508" lon="5.6698">
        <ele>637</ele>
        <time>2010-03-14T15:35:06.36Z</time>
      </trkpt>
      <trkpt lat="45.28507" lon="5.66985">
        <ele>638</ele>
        <time>2010-03-14T15:35:16.35Z</time>
      </trkpt>
      <trkpt lat="45.28511" lon="5.66988">
        <ele>638</ele>
        <time>2010-03-14T15:35:27.35Z</time>
      </trkpt>
      <trkpt lat="45.28512" lon="5.66987">
        <ele>638</ele>
        <time>2010-03-14T15:35:37.34Z</time>
      </trkpt>
      <trkpt lat="45.28512" lon="5.66987">
        <ele>638</ele>
        <time>2010-03-14T15:35:47.34Z</time>
      </trkpt>
      <trkpt lat="45.28512" lon="5.66986">
        <ele>638</ele>
        <time>2010-03-14T15:35:57.34Z</time>
      </trkpt>
      <trkpt lat="45.2851" lon="5.66987">
        <ele>638</ele>
        <time>2010-03-14T15:36:08.34Z</time>
      </trkpt>
      <trkpt lat="45.2851" lon="5.66987">
        <ele>638</ele>
        <time>2010-03-14T15:36:18.33Z</time>
      </trkpt>
      <trkpt lat="45.28511" lon="5.6699">
        <ele>638</ele>
        <time>2010-03-14T15:36:28.32Z</time>
      </trkpt>
      <trkpt lat="45.28494" lon="5.66986">
        <ele>643</ele>
        <time>2010-03-14T15:36:41.32Z</time>
      </trkpt>
      <trkpt lat="45.28489" lon="5.66987">
        <ele>644</ele>
        <time>2010-03-14T15:36:52.31Z</time>
      </trkpt>
      <trkpt lat="45.28489" lon="5.66983">
        <ele>644</ele>
        <time>2010-03-14T15:37:02.31Z</time>
      </trkpt>
      <trkpt lat="45.28503" lon="5.66988">
        <ele>639</ele>
        <time>2010-03-14T15:37:13.31Z</time>
      </trkpt>
      <trkpt lat="45.28503" lon="5.66992">
        <ele>639</ele>
        <time>2010-03-14T15:37:23.3Z</time>
      </trkpt>
      <trkpt lat="45.28505" lon="5.6699">
        <ele>639</ele>
        <time>2010-03-14T15:37:33.3Z</time>
      </trkpt>
      <trkpt lat="45.28505" lon="5.66987">
        <ele>638</ele>
        <time>2010-03-14T15:37:43.29Z</time>
      </trkpt>
      <trkpt lat="45.28502" lon="5.6698">
        <ele>637</ele>
        <time>2010-03-14T15:37:56.29Z</time>
      </trkpt>
      <trkpt lat="45.28501" lon="5.6699">
        <ele>639</ele>
        <time>2010-03-14T15:38:06.28Z</time>
      </trkpt>
      <trkpt lat="45.28499" lon="5.66989">
        <ele>643</ele>
        <time>2010-03-14T15:38:16.28Z</time>
      </trkpt>
      <trkpt lat="45.28518" lon="5.6699">
        <ele>638</ele>
        <time>2010-03-14T15:38:28.28Z</time>
      </trkpt>
      <trkpt lat="45.28523" lon="5.66963">
        <ele>635</ele>
        <time>2010-03-14T15:38:39.27Z</time>
      </trkpt>
      <trkpt lat="45.28526" lon="5.66938">
        <ele>632</ele>
        <time>2010-03-14T15:38:49.27Z</time>
      </trkpt>
      <trkpt lat="45.28522" lon="5.66921">
        <ele>630</ele>
        <time>2010-03-14T15:38:59.27Z</time>
      </trkpt>
      <trkpt lat="45.28524" lon="5.66893">
        <ele>621</ele>
        <time>2010-03-14T15:39:10.26Z</time>
      </trkpt>
      <trkpt lat="45.28518" lon="5.66845">
        <ele>615</ele>
        <time>2010-03-14T15:39:21.26Z</time>
      </trkpt>
      <trkpt lat="45.28525" lon="5.66828">
        <ele>607</ele>
        <time>2010-03-14T15:39:31.25Z</time>
      </trkpt>
      <trkpt lat="45.28529" lon="5.6682">
        <ele>607</ele>
        <time>2010-03-14T15:39:41.25Z</time>
      </trkpt>
      <trkpt lat="45.28528" lon="5.66812">
        <ele>606</ele>
        <time>2010-03-14T15:39:51.24Z</time>
      </trkpt>
      <trkpt lat="45.28537" lon="5.66807">
        <ele>607</ele>
        <time>2010-03-14T15:40:02.24Z</time>
      </trkpt>
      <trkpt lat="45.28548" lon="5.66772">
        <ele>605</ele>
        <time>2010-03-14T15:40:14.24Z</time>
      </trkpt>
      <trkpt lat="45.28549" lon="5.66755">
        <ele>605</ele>
        <time>2010-03-14T15:40:24.23Z</time>
      </trkpt>
      <trkpt lat="45.28546" lon="5.66754">
        <ele>604</ele>
        <time>2010-03-14T15:40:34.22Z</time>
      </trkpt>
      <trkpt lat="45.2854" lon="5.66762">
        <ele>603</ele>
        <time>2010-03-14T15:40:45.22Z</time>
      </trkpt>
      <trkpt lat="45.28517" lon="5.66737">
        <ele>591</ele>
        <time>2010-03-14T15:40:56.22Z</time>
      </trkpt>
      <trkpt lat="45.28511" lon="5.66719">
        <ele>590</ele>
        <time>2010-03-14T15:41:06.22Z</time>
      </trkpt>
      <trkpt lat="45.28515" lon="5.66711">
        <ele>589</ele>
        <time>2010-03-14T15:41:16.21Z</time>
      </trkpt>
      <trkpt lat="45.28494" lon="5.66707">
        <ele>579</ele>
        <time>2010-03-14T15:41:26.21Z</time>
      </trkpt>
      <trkpt lat="45.28475" lon="5.66702">
        <ele>578</ele>
        <time>2010-03-14T15:41:36.21Z</time>
      </trkpt>
      <trkpt lat="45.28462" lon="5.66688">
        <ele>576</ele>
        <time>2010-03-14T15:41:46.2Z</time>
      </trkpt>
      <trkpt lat="45.28458" lon="5.66648">
        <ele>560</ele>
        <time>2010-03-14T15:41:57.2Z</time>
      </trkpt>
      <trkpt lat="45.28442" lon="5.66617">
        <ele>556</ele>
        <time>2010-03-14T15:42:07.19Z</time>
      </trkpt>
      <trkpt lat="45.28435" lon="5.66591">
        <ele>552</ele>
        <time>2010-03-14T15:42:18.19Z</time>
      </trkpt>
      <trkpt lat="45.28436" lon="5.66586">
        <ele>552</ele>
        <time>2010-03-14T15:42:28.18Z</time>
      </trkpt>
      <trkpt lat="45.2844" lon="5.6658">
        <ele>543</ele>
        <time>2010-03-14T15:42:38.18Z</time>
      </trkpt>
      <trkpt lat="45.28455" lon="5.66562">
        <ele>542</ele>
        <time>2010-03-14T15:42:49.18Z</time>
      </trkpt>
      <trkpt lat="45.28469" lon="5.66533">
        <ele>539</ele>
        <time>2010-03-14T15:42:59.18Z</time>
      </trkpt>
      <trkpt lat="45.28472" lon="5.66454">
        <ele>527</ele>
        <time>2010-03-14T15:43:11.17Z</time>
      </trkpt>
      <trkpt lat="45.28478" lon="5.66413">
        <ele>516</ele>
        <time>2010-03-14T15:43:21.16Z</time>
      </trkpt>
      <trkpt lat="45.2848" lon="5.66404">
        <ele>516</ele>
        <time>2010-03-14T15:43:31.16Z</time>
      </trkpt>
      <trkpt lat="45.28482" lon="5.66388">
        <ele>515</ele>
        <time>2010-03-14T15:43:41.15Z</time>
      </trkpt>
      <trkpt lat="45.28486" lon="5.66326">
        <ele>500</ele>
        <time>2010-03-14T15:43:52.16Z</time>
      </trkpt>
      <trkpt lat="45.28496" lon="5.66286">
        <ele>498</ele>
        <time>2010-03-14T15:44:02.14Z</time>
      </trkpt>
      <trkpt lat="45.28481" lon="5.66221">
        <ele>488</ele>
        <time>2010-03-14T15:44:15.15Z</time>
      </trkpt>
      <trkpt lat="45.28475" lon="5.66221">
        <ele>488</ele>
        <time>2010-03-14T15:44:25.14Z</time>
      </trkpt>
      <trkpt lat="45.28467" lon="5.66215">
        <ele>487</ele>
        <time>2010-03-14T15:44:37.14Z</time>
      </trkpt>
      <trkpt lat="45.28466" lon="5.66213">
        <ele>487</ele>
        <time>2010-03-14T15:44:47.13Z</time>
      </trkpt>
      <trkpt lat="45.2845" lon="5.6621">
        <ele>486</ele>
        <time>2010-03-14T15:44:57.13Z</time>
      </trkpt>
      <trkpt lat="45.28436" lon="5.66192">
        <ele>482</ele>
        <time>2010-03-14T15:45:07.13Z</time>
      </trkpt>
      <trkpt lat="45.28421" lon="5.66186">
        <ele>478</ele>
        <time>2010-03-14T15:45:17.11Z</time>
      </trkpt>
      <trkpt lat="45.2841" lon="5.66189">
        <ele>477</ele>
        <time>2010-03-14T15:45:27.13Z</time>
      </trkpt>
      <trkpt lat="45.28393" lon="5.66184">
        <ele>478</ele>
        <time>2010-03-14T15:45:37.11Z</time>
      </trkpt>
      <trkpt lat="45.28379" lon="5.66181">
        <ele>479</ele>
        <time>2010-03-14T15:45:47.1Z</time>
      </trkpt>
      <trkpt lat="45.28363" lon="5.66172">
        <ele>479</ele>
        <time>2010-03-14T15:45:57.1Z</time>
      </trkpt>
      <trkpt lat="45.2835" lon="5.66167">
        <ele>477</ele>
        <time>2010-03-14T15:46:07.09Z</time>
      </trkpt>
      <trkpt lat="45.28336" lon="5.66168">
        <ele>474</ele>
        <time>2010-03-14T15:46:17.09Z</time>
      </trkpt>
      <trkpt lat="45.28322" lon="5.66172">
        <ele>478</ele>
        <time>2010-03-14T15:46:27.09Z</time>
      </trkpt>
      <trkpt lat="45.28306" lon="5.66177">
        <ele>482</ele>
        <time>2010-03-14T15:46:37.09Z</time>
      </trkpt>
      <trkpt lat="45.28291" lon="5.66178">
        <ele>483</ele>
        <time>2010-03-14T15:46:47.08Z</time>
      </trkpt>
      <trkpt lat="45.28279" lon="5.66177">
        <ele>483</ele>
        <time>2010-03-14T15:46:57.09Z</time>
      </trkpt>
      <trkpt lat="45.28268" lon="5.66169">
        <ele>481</ele>
        <time>2010-03-14T15:47:07.07Z</time>
      </trkpt>
      <trkpt lat="45.28255" lon="5.66166">
        <ele>473</ele>
        <time>2010-03-14T15:47:17.07Z</time>
      </trkpt>
      <trkpt lat="45.28256" lon="5.66184">
        <ele>482</ele>
        <time>2010-03-14T15:47:27.06Z</time>
      </trkpt>
      <trkpt lat="45.28262" lon="5.66197">
        <ele>485</ele>
        <time>2010-03-14T15:47:37.06Z</time>
      </trkpt>
      <trkpt lat="45.2827" lon="5.6621">
        <ele>487</ele>
        <time>2010-03-14T15:47:47.05Z</time>
      </trkpt>
      <trkpt lat="45.28277" lon="5.66224">
        <ele>490</ele>
        <time>2010-03-14T15:47:57.05Z</time>
      </trkpt>
      <trkpt lat="45.28277" lon="5.66241">
        <ele>492</ele>
        <time>2010-03-14T15:48:07.05Z</time>
      </trkpt>
      <trkpt lat="45.28279" lon="5.66257">
        <ele>506</ele>
        <time>2010-03-14T15:48:17.05Z</time>
      </trkpt>
      <trkpt lat="45.28284" lon="5.6627">
        <ele>508</ele>
        <time>2010-03-14T15:48:27.04Z</time>
      </trkpt>
      <trkpt lat="45.28291" lon="5.66283">
        <ele>509</ele>
        <time>2010-03-14T15:48:37.04Z</time>
      </trkpt>
      <trkpt lat="45.283" lon="5.66293">
        <ele>510</ele>
        <time>2010-03-14T15:48:47.03Z</time>
      </trkpt>
      <trkpt lat="45.28302" lon="5.66297">
        <ele>511</ele>
        <time>2010-03-14T15:48:57.03Z</time>
      </trkpt>
      <trkpt lat="45.28303" lon="5.66303">
        <ele>512</ele>
        <time>2010-03-14T15:49:07.03Z</time>
      </trkpt>
      <trkpt lat="45.28307" lon="5.6631">
        <ele>512</ele>
        <time>2010-03-14T15:49:17.03Z</time>
      </trkpt>
      <trkpt lat="45.28311" lon="5.66306">
        <ele>512</ele>
        <time>2010-03-14T15:49:27.02Z</time>
      </trkpt>
      <trkpt lat="45.28317" lon="5.66292">
        <ele>510</ele>
        <time>2010-03-14T15:49:37.03Z</time>
      </trkpt>
      <trkpt lat="45.28329" lon="5.66287">
        <ele>509</ele>
        <time>2010-03-14T15:49:47.01Z</time>
      </trkpt>
      <trkpt lat="45.28333" lon="5.66299">
        <ele>511</ele>
        <time>2010-03-14T15:49:57Z</time>
      </trkpt>
      <trkpt lat="45.28328" lon="5.66306">
        <ele>512</ele>
        <time>2010-03-14T15:50:07Z</time>
      </trkpt>
      <trkpt lat="45.28323" lon="5.66314">
        <ele>514</ele>
        <time>2010-03-14T15:50:17Z</time>
      </trkpt>
      <trkpt lat="45.28316" lon="5.66322">
        <ele>514</ele>
        <time>2010-03-14T15:50:27.01Z</time>
      </trkpt>
      <trkpt lat="45.2831" lon="5.66332">
        <ele>515</ele>
        <time>2010-03-14T15:50:36.99Z</time>
      </trkpt>
      <trkpt lat="45.28303" lon="5.66343">
        <ele>527</ele>
        <time>2010-03-14T15:50:47Z</time>
      </trkpt>
      <trkpt lat="45.28295" lon="5.66357">
        <ele>529</ele>
        <time>2010-03-14T15:50:56.99Z</time>
      </trkpt>
      <trkpt lat="45.28283" lon="5.66357">
        <ele>529</ele>
        <time>2010-03-14T15:51:06.98Z</time>
      </trkpt>
      <trkpt lat="45.28276" lon="5.66356">
        <ele>529</ele>
        <time>2010-03-14T15:51:16.98Z</time>
      </trkpt>
      <trkpt lat="45.28269" lon="5.66346">
        <ele>527</ele>
        <time>2010-03-14T15:51:26.98Z</time>
      </trkpt>
      <trkpt lat="45.28261" lon="5.6633">
        <ele>518</ele>
        <time>2010-03-14T15:51:36.97Z</time>
      </trkpt>
      <trkpt lat="45.28243" lon="5.66318">
        <ele>527</ele>
        <time>2010-03-14T15:51:54.97Z</time>
      </trkpt>
      <trkpt lat="45.28245" lon="5.66344">
        <ele>533</ele>
        <time>2010-03-14T15:52:12.96Z</time>
      </trkpt>
      <trkpt lat="45.28252" lon="5.66368">
        <ele>530</ele>
        <time>2010-03-14T15:52:28.95Z</time>
      </trkpt>
      <trkpt lat="45.28261" lon="5.66383">
        <ele>533</ele>
        <time>2010-03-14T15:52:38.96Z</time>
      </trkpt>
      <trkpt lat="45.28271" lon="5.664">
        <ele>535</ele>
        <time>2010-03-14T15:52:48.95Z</time>
      </trkpt>
      <trkpt lat="45.28278" lon="5.66416">
        <ele>535</ele>
        <time>2010-03-14T15:52:58.95Z</time>
      </trkpt>
      <trkpt lat="45.28282" lon="5.66429">
        <ele>546</ele>
        <time>2010-03-14T15:53:08.94Z</time>
      </trkpt>
      <trkpt lat="45.28289" lon="5.66438">
        <ele>547</ele>
        <time>2010-03-14T15:53:18.94Z</time>
      </trkpt>
      <trkpt lat="45.28291" lon="5.66449">
        <ele>547</ele>
        <time>2010-03-14T15:53:28.94Z</time>
      </trkpt>
      <trkpt lat="45.28293" lon="5.66458">
        <ele>548</ele>
        <time>2010-03-14T15:53:38.94Z</time>
      </trkpt>
      <trkpt lat="45.28299" lon="5.66471">
        <ele>549</ele>
        <time>2010-03-14T15:53:48.94Z</time>
      </trkpt>
      <trkpt lat="45.28303" lon="5.66483">
        <ele>550</ele>
        <time>2010-03-14T15:53:59.93Z</time>
      </trkpt>
      <trkpt lat="45.28309" lon="5.66496">
        <ele>550</ele>
        <time>2010-03-14T15:54:09.92Z</time>
      </trkpt>
      <trkpt lat="45.28315" lon="5.66507">
        <ele>558</ele>
        <time>2010-03-14T15:54:19.92Z</time>
      </trkpt>
      <trkpt lat="45.28318" lon="5.66518">
        <ele>559</ele>
        <time>2010-03-14T15:54:29.92Z</time>
      </trkpt>
      <trkpt lat="45.28314" lon="5.66528">
        <ele>561</ele>
        <time>2010-03-14T15:54:39.91Z</time>
      </trkpt>
      <trkpt lat="45.28306" lon="5.66534">
        <ele>562</ele>
        <time>2010-03-14T15:54:49.91Z</time>
      </trkpt>
      <trkpt lat="45.283" lon="5.6654">
        <ele>563</ele>
        <time>2010-03-14T15:54:59.91Z</time>
      </trkpt>
      <trkpt lat="45.28299" lon="5.66531">
        <ele>563</ele>
        <time>2010-03-14T15:55:09.9Z</time>
      </trkpt>
      <trkpt lat="45.28299" lon="5.66532">
        <ele>563</ele>
        <time>2010-03-14T15:55:19.9Z</time>
      </trkpt>
      <trkpt lat="45.283" lon="5.66534">
        <ele>563</ele>
        <time>2010-03-14T15:55:29.89Z</time>
      </trkpt>
      <trkpt lat="45.28301" lon="5.66535">
        <ele>563</ele>
        <time>2010-03-14T15:55:39.89Z</time>
      </trkpt>
      <trkpt lat="45.283" lon="5.66533">
        <ele>563</ele>
        <time>2010-03-14T15:55:49.9Z</time>
      </trkpt>
      <trkpt lat="45.28298" lon="5.66527">
        <ele>562</ele>
        <time>2010-03-14T15:55:59.88Z</time>
      </trkpt>
      <trkpt lat="45.28294" lon="5.66517">
        <ele>562</ele>
        <time>2010-03-14T15:56:09.88Z</time>
      </trkpt>
      <trkpt lat="45.28288" lon="5.66503">
        <ele>561</ele>
        <time>2010-03-14T15:56:19.87Z</time>
      </trkpt>
      <trkpt lat="45.2828" lon="5.66492">
        <ele>552</ele>
        <time>2010-03-14T15:56:29.87Z</time>
      </trkpt>
      <trkpt lat="45.28272" lon="5.66481">
        <ele>552</ele>
        <time>2010-03-14T15:56:39.87Z</time>
      </trkpt>
      <trkpt lat="45.28261" lon="5.66472">
        <ele>551</ele>
        <time>2010-03-14T15:56:49.86Z</time>
      </trkpt>
      <trkpt lat="45.28247" lon="5.66467">
        <ele>562</ele>
        <time>2010-03-14T15:56:59.85Z</time>
      </trkpt>
      <trkpt lat="45.28232" lon="5.66463">
        <ele>563</ele>
        <time>2010-03-14T15:57:09.86Z</time>
      </trkpt>
      <trkpt lat="45.28218" lon="5.66456">
        <ele>565</ele>
        <time>2010-03-14T15:57:19.85Z</time>
      </trkpt>
      <trkpt lat="45.28207" lon="5.66455">
        <ele>567</ele>
        <time>2010-03-14T15:57:29.84Z</time>
      </trkpt>
      <trkpt lat="45.28195" lon="5.66446">
        <ele>568</ele>
        <time>2010-03-14T15:57:39.84Z</time>
      </trkpt>
      <trkpt lat="45.28188" lon="5.66435">
        <ele>568</ele>
        <time>2010-03-14T15:57:49.84Z</time>
      </trkpt>
      <trkpt lat="45.28181" lon="5.66425">
        <ele>568</ele>
        <time>2010-03-14T15:57:59.84Z</time>
      </trkpt>
      <trkpt lat="45.28177" lon="5.66422">
        <ele>569</ele>
        <time>2010-03-14T15:58:09.84Z</time>
      </trkpt>
      <trkpt lat="45.28167" lon="5.6642">
        <ele>570</ele>
        <time>2010-03-14T15:58:19.83Z</time>
      </trkpt>
      <trkpt lat="45.28158" lon="5.66412">
        <ele>575</ele>
        <time>2010-03-14T15:58:29.82Z</time>
      </trkpt>
      <trkpt lat="45.28153" lon="5.66398">
        <ele>579</ele>
        <time>2010-03-14T15:58:39.82Z</time>
      </trkpt>
      <trkpt lat="45.28158" lon="5.66382">
        <ele>579</ele>
        <time>2010-03-14T15:58:49.82Z</time>
      </trkpt>
      <trkpt lat="45.28159" lon="5.6637">
        <ele>578</ele>
        <time>2010-03-14T15:58:59.81Z</time>
      </trkpt>
      <trkpt lat="45.28163" lon="5.66358">
        <ele>575</ele>
        <time>2010-03-14T15:59:09.81Z</time>
      </trkpt>
      <trkpt lat="45.2816" lon="5.66342">
        <ele>570</ele>
        <time>2010-03-14T15:59:19.8Z</time>
      </trkpt>
      <trkpt lat="45.28155" lon="5.66328">
        <ele>566</ele>
        <time>2010-03-14T15:59:29.81Z</time>
      </trkpt>
      <trkpt lat="45.28148" lon="5.66312">
        <ele>569</ele>
        <time>2010-03-14T15:59:39.8Z</time>
      </trkpt>
      <trkpt lat="45.28133" lon="5.66303">
        <ele>571</ele>
        <time>2010-03-14T15:59:49.79Z</time>
      </trkpt>
      <trkpt lat="45.2812" lon="5.66296">
        <ele>574</ele>
        <time>2010-03-14T15:59:59.78Z</time>
      </trkpt>
      <trkpt lat="45.2811" lon="5.66287">
        <ele>575</ele>
        <time>2010-03-14T16:00:09.79Z</time>
      </trkpt>
      <trkpt lat="45.28102" lon="5.66275">
        <ele>576</ele>
        <time>2010-03-14T16:00:19.79Z</time>
      </trkpt>
      <trkpt lat="45.28092" lon="5.66258">
        <ele>578</ele>
        <time>2010-03-14T16:00:29.78Z</time>
      </trkpt>
      <trkpt lat="45.28082" lon="5.6625">
        <ele>582</ele>
        <time>2010-03-14T16:00:39.78Z</time>
      </trkpt>
      <trkpt lat="45.2807" lon="5.66232">
        <ele>580</ele>
        <time>2010-03-14T16:00:50.77Z</time>
      </trkpt>
      <trkpt lat="45.28053" lon="5.66217">
        <ele>579</ele>
        <time>2010-03-14T16:01:00.76Z</time>
      </trkpt>
      <trkpt lat="45.28041" lon="5.66205">
        <ele>579</ele>
        <time>2010-03-14T16:01:10.77Z</time>
      </trkpt>
      <trkpt lat="45.28023" lon="5.66192">
        <ele>581</ele>
        <time>2010-03-14T16:01:20.75Z</time>
      </trkpt>
      <trkpt lat="45.28007" lon="5.66182">
        <ele>582</ele>
        <time>2010-03-14T16:01:30.75Z</time>
      </trkpt>
      <trkpt lat="45.27995" lon="5.66172">
        <ele>587</ele>
        <time>2010-03-14T16:01:40.75Z</time>
      </trkpt>
      <trkpt lat="45.27984" lon="5.66161">
        <ele>575</ele>
        <time>2010-03-14T16:01:50.74Z</time>
      </trkpt>
      <trkpt lat="45.27972" lon="5.66166">
        <ele>572</ele>
        <time>2010-03-14T16:02:00.74Z</time>
      </trkpt>
      <trkpt lat="45.27957" lon="5.66172">
        <ele>590</ele>
        <time>2010-03-14T16:02:10.74Z</time>
      </trkpt>
      <trkpt lat="45.27941" lon="5.66177">
        <ele>589</ele>
        <time>2010-03-14T16:02:20.73Z</time>
      </trkpt>
      <trkpt lat="45.27924" lon="5.66186">
        <ele>589</ele>
        <time>2010-03-14T16:02:30.73Z</time>
      </trkpt>
      <trkpt lat="45.27907" lon="5.66185">
        <ele>588</ele>
        <time>2010-03-14T16:02:40.72Z</time>
      </trkpt>
      <trkpt lat="45.279" lon="5.66187">
        <ele>588</ele>
        <time>2010-03-14T16:02:50.72Z</time>
      </trkpt>
      <trkpt lat="45.27893" lon="5.66191">
        <ele>589</ele>
        <time>2010-03-14T16:03:01.72Z</time>
      </trkpt>
      <trkpt lat="45.27888" lon="5.66192">
        <ele>589</ele>
        <time>2010-03-14T16:03:11.72Z</time>
      </trkpt>
      <trkpt lat="45.27886" lon="5.66192">
        <ele>589</ele>
        <time>2010-03-14T16:03:21.71Z</time>
      </trkpt>
      <trkpt lat="45.27886" lon="5.66194">
        <ele>590</ele>
        <time>2010-03-14T16:03:31.71Z</time>
      </trkpt>
      <trkpt lat="45.27885" lon="5.66193">
        <ele>590</ele>
        <time>2010-03-14T16:03:41.7Z</time>
      </trkpt>
      <trkpt lat="45.27885" lon="5.66193">
        <ele>590</ele>
        <time>2010-03-14T16:03:51.69Z</time>
      </trkpt>
      <trkpt lat="45.27884" lon="5.66193">
        <ele>590</ele>
        <time>2010-03-14T16:04:01.7Z</time>
      </trkpt>
      <trkpt lat="45.27884" lon="5.66192">
        <ele>589</ele>
        <time>2010-03-14T16:04:11.69Z</time>
      </trkpt>
      <trkpt lat="45.27883" lon="5.66192">
        <ele>589</ele>
        <time>2010-03-14T16:04:21.69Z</time>
      </trkpt>
      <trkpt lat="45.27882" lon="5.66191">
        <ele>589</ele>
        <time>2010-03-14T16:04:31.69Z</time>
      </trkpt>
      <trkpt lat="45.27882" lon="5.66191">
        <ele>589</ele>
        <time>2010-03-14T16:04:41.68Z</time>
      </trkpt>
      <trkpt lat="45.27882" lon="5.66191">
        <ele>589</ele>
        <time>2010-03-14T16:04:51.68Z</time>
      </trkpt>
      <trkpt lat="45.27882" lon="5.66191">
        <ele>589</ele>
        <time>2010-03-14T16:05:01.68Z</time>
      </trkpt>
      <trkpt lat="45.27882" lon="5.66191">
        <ele>589</ele>
        <time>2010-03-14T16:05:11.66Z</time>
      </trkpt>
      <trkpt lat="45.27882" lon="5.66191">
        <ele>589</ele>
        <time>2010-03-14T16:05:21.67Z</time>
      </trkpt>
      <trkpt lat="45.27882" lon="5.66191">
        <ele>589</ele>
        <time>2010-03-14T16:05:31.66Z</time>
      </trkpt>
      <trkpt lat="45.27882" lon="5.66191">
        <ele>589</ele>
        <time>2010-03-14T16:05:41.66Z</time>
      </trkpt>
      <trkpt lat="45.27882" lon="5.66191">
        <ele>589</ele>
        <time>2010-03-14T16:05:51.65Z</time>
      </trkpt>
      <trkpt lat="45.27882" lon="5.66191">
        <ele>589</ele>
        <time>2010-03-14T16:06:01.66Z</time>
      </trkpt>
      <trkpt lat="45.27881" lon="5.6619">
        <ele>589</ele>
        <time>2010-03-14T16:06:11.65Z</time>
      </trkpt>
      <trkpt lat="45.27881" lon="5.6619">
        <ele>589</ele>
        <time>2010-03-14T16:06:21.64Z</time>
      </trkpt>
      <trkpt lat="45.27881" lon="5.6619">
        <ele>589</ele>
        <time>2010-03-14T16:06:31.64Z</time>
      </trkpt>
      <trkpt lat="45.27881" lon="5.6619">
        <ele>589</ele>
        <time>2010-03-14T16:06:41.64Z</time>
      </trkpt>
      <trkpt lat="45.27881" lon="5.6619">
        <ele>589</ele>
        <time>2010-03-14T16:06:51.63Z</time>
      </trkpt>
      <trkpt lat="45.27881" lon="5.6619">
        <ele>589</ele>
        <time>2010-03-14T16:07:01.63Z</time>
      </trkpt>
      <trkpt lat="45.27881" lon="5.6619">
        <ele>589</ele>
        <time>2010-03-14T16:07:11.63Z</time>
      </trkpt>
      <trkpt lat="45.2788" lon="5.6619">
        <ele>589</ele>
        <time>2010-03-14T16:07:21.62Z</time>
      </trkpt>
      <trkpt lat="45.2788" lon="5.6619">
        <ele>589</ele>
        <time>2010-03-14T16:07:31.61Z</time>
      </trkpt>
      <trkpt lat="45.27879" lon="5.66191">
        <ele>589</ele>
        <time>2010-03-14T16:07:41.61Z</time>
      </trkpt>
      <trkpt lat="45.27879" lon="5.66191">
        <ele>589</ele>
        <time>2010-03-14T16:07:51.61Z</time>
      </trkpt>
      <trkpt lat="45.27877" lon="5.6619">
        <ele>589</ele>
        <time>2010-03-14T16:08:01.6Z</time>
      </trkpt>
      <trkpt lat="45.27874" lon="5.66192">
        <ele>589</ele>
        <time>2010-03-14T16:08:11.59Z</time>
      </trkpt>
      <trkpt lat="45.27873" lon="5.66192">
        <ele>589</ele>
        <time>2010-03-14T16:08:21.59Z</time>
      </trkpt>
      <trkpt lat="45.27871" lon="5.66194">
        <ele>589</ele>
        <time>2010-03-14T16:08:31.59Z</time>
      </trkpt>
      <trkpt lat="45.27869" lon="5.66195">
        <ele>589</ele>
        <time>2010-03-14T16:08:41.59Z</time>
      </trkpt>
      <trkpt lat="45.27866" lon="5.66198">
        <ele>589</ele>
        <time>2010-03-14T16:08:51.58Z</time>
      </trkpt>
      <trkpt lat="45.27865" lon="5.66199">
        <ele>590</ele>
        <time>2010-03-14T16:09:01.58Z</time>
      </trkpt>
      <trkpt lat="45.27864" lon="5.66203">
        <ele>590</ele>
        <time>2010-03-14T16:09:11.57Z</time>
      </trkpt>
      <trkpt lat="45.27866" lon="5.66204">
        <ele>590</ele>
        <time>2010-03-14T16:09:23.57Z</time>
      </trkpt>
      <trkpt lat="45.27865" lon="5.66202">
        <ele>590</ele>
        <time>2010-03-14T16:09:33.57Z</time>
      </trkpt>
      <trkpt lat="45.27864" lon="5.66203">
        <ele>590</ele>
        <time>2010-03-14T16:09:43.56Z</time>
      </trkpt>
      <trkpt lat="45.27867" lon="5.66201">
        <ele>590</ele>
        <time>2010-03-14T16:09:53.56Z</time>
      </trkpt>
      <trkpt lat="45.27867" lon="5.66197">
        <ele>589</ele>
        <time>2010-03-14T16:10:04.56Z</time>
      </trkpt>
      <trkpt lat="45.27867" lon="5.66194">
        <ele>589</ele>
        <time>2010-03-14T16:10:14.55Z</time>
      </trkpt>
      <trkpt lat="45.27869" lon="5.66189">
        <ele>588</ele>
        <time>2010-03-14T16:10:24.54Z</time>
      </trkpt>
      <trkpt lat="45.27872" lon="5.66189">
        <ele>588</ele>
        <time>2010-03-14T16:10:35.54Z</time>
      </trkpt>
      <trkpt lat="45.27873" lon="5.66188">
        <ele>588</ele>
        <time>2010-03-14T16:10:45.54Z</time>
      </trkpt>
      <trkpt lat="45.27873" lon="5.66189">
        <ele>588</ele>
        <time>2010-03-14T16:10:55.53Z</time>
      </trkpt>
      <trkpt lat="45.27872" lon="5.6618">
        <ele>587</ele>
        <time>2010-03-14T16:11:06.53Z</time>
      </trkpt>
      <trkpt lat="45.27874" lon="5.66179">
        <ele>587</ele>
        <time>2010-03-14T16:11:16.52Z</time>
      </trkpt>
      <trkpt lat="45.27875" lon="5.66172">
        <ele>586</ele>
        <time>2010-03-14T16:11:26.52Z</time>
      </trkpt>
      <trkpt lat="45.27879" lon="5.66173">
        <ele>587</ele>
        <time>2010-03-14T16:11:36.51Z</time>
      </trkpt>
      <trkpt lat="45.27881" lon="5.6617">
        <ele>586</ele>
        <time>2010-03-14T16:11:46.51Z</time>
      </trkpt>
      <trkpt lat="45.27884" lon="5.66166">
        <ele>563</ele>
        <time>2010-03-14T16:11:56.5Z</time>
      </trkpt>
      <trkpt lat="45.27884" lon="5.66165">
        <ele>563</ele>
        <time>2010-03-14T16:12:06.5Z</time>
      </trkpt>
      <trkpt lat="45.27882" lon="5.66164">
        <ele>563</ele>
        <time>2010-03-14T16:12:16.5Z</time>
      </trkpt>
      <trkpt lat="45.27875" lon="5.66157">
        <ele>561</ele>
        <time>2010-03-14T16:12:26.49Z</time>
      </trkpt>
      <trkpt lat="45.27871" lon="5.66158">
        <ele>561</ele>
        <time>2010-03-14T16:12:36.49Z</time>
      </trkpt>
      <trkpt lat="45.27869" lon="5.6616">
        <ele>561</ele>
        <time>2010-03-14T16:12:46.48Z</time>
      </trkpt>
      <trkpt lat="45.27865" lon="5.66161">
        <ele>561</ele>
        <time>2010-03-14T16:12:56.48Z</time>
      </trkpt>
      <trkpt lat="45.27861" lon="5.66159">
        <ele>561</ele>
        <time>2010-03-14T16:13:06.48Z</time>
      </trkpt>
      <trkpt lat="45.27855" lon="5.66157">
        <ele>561</ele>
        <time>2010-03-14T16:13:16.48Z</time>
      </trkpt>
      <trkpt lat="45.2785" lon="5.66155">
        <ele>561</ele>
        <time>2010-03-14T16:13:26.47Z</time>
      </trkpt>
      <trkpt lat="45.27846" lon="5.66154">
        <ele>561</ele>
        <time>2010-03-14T16:13:36.46Z</time>
      </trkpt>
      <trkpt lat="45.27844" lon="5.66157">
        <ele>563</ele>
        <time>2010-03-14T16:13:46.46Z</time>
      </trkpt>
      <trkpt lat="45.27839" lon="5.66159">
        <ele>564</ele>
        <time>2010-03-14T16:13:56.46Z</time>
      </trkpt>
      <trkpt lat="45.27832" lon="5.66157">
        <ele>558</ele>
        <time>2010-03-14T16:14:06.45Z</time>
      </trkpt>
      <trkpt lat="45.27822" lon="5.66156">
        <ele>553</ele>
        <time>2010-03-14T16:14:16.45Z</time>
      </trkpt>
      <trkpt lat="45.27807" lon="5.66156">
        <ele>546</ele>
        <time>2010-03-14T16:14:26.44Z</time>
      </trkpt>
      <trkpt lat="45.27803" lon="5.66161">
        <ele>546</ele>
        <time>2010-03-14T16:14:36.44Z</time>
      </trkpt>
      <trkpt lat="45.27796" lon="5.66158">
        <ele>543</ele>
        <time>2010-03-14T16:14:46.44Z</time>
      </trkpt>
      <trkpt lat="45.27788" lon="5.6615">
        <ele>540</ele>
        <time>2010-03-14T16:14:57.43Z</time>
      </trkpt>
      <trkpt lat="45.27778" lon="5.66153">
        <ele>539</ele>
        <time>2010-03-14T16:15:07.43Z</time>
      </trkpt>
      <trkpt lat="45.27766" lon="5.66163">
        <ele>540</ele>
        <time>2010-03-14T16:15:17.42Z</time>
      </trkpt>
      <trkpt lat="45.27759" lon="5.66171">
        <ele>552</ele>
        <time>2010-03-14T16:15:27.42Z</time>
      </trkpt>
      <trkpt lat="45.27743" lon="5.66162">
        <ele>535</ele>
        <time>2010-03-14T16:15:37.41Z</time>
      </trkpt>
      <trkpt lat="45.27725" lon="5.66138">
        <ele>521</ele>
        <time>2010-03-14T16:15:47.41Z</time>
      </trkpt>
      <trkpt lat="45.27715" lon="5.66137">
        <ele>520</ele>
        <time>2010-03-14T16:15:57.42Z</time>
      </trkpt>
      <trkpt lat="45.27707" lon="5.66142">
        <ele>520</ele>
        <time>2010-03-14T16:16:07.4Z</time>
      </trkpt>
      <trkpt lat="45.27682" lon="5.66149">
        <ele>520</ele>
        <time>2010-03-14T16:16:17.41Z</time>
      </trkpt>
      <trkpt lat="45.27674" lon="5.66152">
        <ele>521</ele>
        <time>2010-03-14T16:16:27.41Z</time>
      </trkpt>
      <trkpt lat="45.27666" lon="5.66153">
        <ele>516</ele>
        <time>2010-03-14T16:16:37.4Z</time>
      </trkpt>
      <trkpt lat="45.27655" lon="5.66159">
        <ele>516</ele>
        <time>2010-03-14T16:16:47.4Z</time>
      </trkpt>
      <trkpt lat="45.27623" lon="5.6616">
        <ele>508</ele>
        <time>2010-03-14T16:16:57.39Z</time>
      </trkpt>
      <trkpt lat="45.27602" lon="5.66149">
        <ele>505</ele>
        <time>2010-03-14T16:17:07.39Z</time>
      </trkpt>
      <trkpt lat="45.27568" lon="5.66101">
        <ele>489</ele>
        <time>2010-03-14T16:17:20.39Z</time>
      </trkpt>
      <trkpt lat="45.27568" lon="5.66091">
        <ele>487</ele>
        <time>2010-03-14T16:17:31.39Z</time>
      </trkpt>
      <trkpt lat="45.27575" lon="5.6609">
        <ele>486</ele>
        <time>2010-03-14T16:17:41.38Z</time>
      </trkpt>
      <trkpt lat="45.27576" lon="5.66069">
        <ele>475</ele>
        <time>2010-03-14T16:17:52.38Z</time>
      </trkpt>
      <trkpt lat="45.27562" lon="5.66038">
        <ele>465</ele>
        <time>2010-03-14T16:18:03.38Z</time>
      </trkpt>
      <trkpt lat="45.27559" lon="5.66035">
        <ele>465</ele>
        <time>2010-03-14T16:18:13.38Z</time>
      </trkpt>
      <trkpt lat="45.27549" lon="5.6603">
        <ele>463</ele>
        <time>2010-03-14T16:18:23.38Z</time>
      </trkpt>
      <trkpt lat="45.2755" lon="5.66023">
        <ele>462</ele>
        <time>2010-03-14T16:18:33.38Z</time>
      </trkpt>
      <trkpt lat="45.27558" lon="5.65994">
        <ele>441</ele>
        <time>2010-03-14T16:18:44.37Z</time>
      </trkpt>
      <trkpt lat="45.27564" lon="5.6597">
        <ele>437</ele>
        <time>2010-03-14T16:18:57.37Z</time>
      </trkpt>
      <trkpt lat="45.27566" lon="5.65975">
        <ele>438</ele>
        <time>2010-03-14T16:19:08.37Z</time>
      </trkpt>
      <trkpt lat="45.27564" lon="5.6597">
        <ele>437</ele>
        <time>2010-03-14T16:19:18.37Z</time>
      </trkpt>
      <trkpt lat="45.27553" lon="5.65977">
        <ele>437</ele>
        <time>2010-03-14T16:19:28.36Z</time>
      </trkpt>
      <trkpt lat="45.27523" lon="5.66001">
        <ele>455</ele>
        <time>2010-03-14T16:19:39.36Z</time>
      </trkpt>
      <trkpt lat="45.27518" lon="5.66008">
        <ele>455</ele>
        <time>2010-03-14T16:19:49.36Z</time>
      </trkpt>
      <trkpt lat="45.27509" lon="5.66004">
        <ele>450</ele>
        <time>2010-03-14T16:19:59.36Z</time>
      </trkpt>
      <trkpt lat="45.27504" lon="5.66003">
        <ele>446</ele>
        <time>2010-03-14T16:20:09.35Z</time>
      </trkpt>
      <trkpt lat="45.275" lon="5.66004">
        <ele>443</ele>
        <time>2010-03-14T16:20:19.34Z</time>
      </trkpt>
      <trkpt lat="45.27496" lon="5.66004">
        <ele>443</ele>
        <time>2010-03-14T16:20:29.35Z</time>
      </trkpt>
      <trkpt lat="45.27488" lon="5.6601">
        <ele>445</ele>
        <time>2010-03-14T16:20:39.34Z</time>
      </trkpt>
      <trkpt lat="45.27468" lon="5.6602">
        <ele>446</ele>
        <time>2010-03-14T16:20:49.33Z</time>
      </trkpt>
      <trkpt lat="45.27449" lon="5.66033">
        <ele>445</ele>
        <time>2010-03-14T16:21:00.34Z</time>
      </trkpt>
      <trkpt lat="45.27435" lon="5.66038">
        <ele>445</ele>
        <time>2010-03-14T16:21:10.34Z</time>
      </trkpt>
      <trkpt lat="45.27426" lon="5.66041">
        <ele>445</ele>
        <time>2010-03-14T16:21:20.33Z</time>
      </trkpt>
      <trkpt lat="45.27425" lon="5.66044">
        <ele>446</ele>
        <time>2010-03-14T16:21:30.33Z</time>
      </trkpt>
      <trkpt lat="45.27383" lon="5.66042">
        <ele>434</ele>
        <time>2010-03-14T16:21:41.32Z</time>
      </trkpt>
      <trkpt lat="45.2734" lon="5.66014">
        <ele>421</ele>
        <time>2010-03-14T16:21:51.33Z</time>
      </trkpt>
      <trkpt lat="45.27278" lon="5.66003">
        <ele>418</ele>
        <time>2010-03-14T16:22:02.32Z</time>
      </trkpt>
      <trkpt lat="45.27217" lon="5.66028">
        <ele>406</ele>
        <time>2010-03-14T16:22:12.32Z</time>
      </trkpt>
      <trkpt lat="45.27163" lon="5.66039">
        <ele>384</ele>
        <time>2010-03-14T16:22:24.31Z</time>
      </trkpt>
      <trkpt lat="45.27148" lon="5.66024">
        <ele>381</ele>
        <time>2010-03-14T16:22:34.32Z</time>
      </trkpt>
      <trkpt lat="45.27112" lon="5.66027">
        <ele>376</ele>
        <time>2010-03-14T16:22:45.32Z</time>
      </trkpt>
      <trkpt lat="45.27085" lon="5.66021">
        <ele>370</ele>
        <time>2010-03-14T16:22:55.31Z</time>
      </trkpt>
      <trkpt lat="45.27049" lon="5.66026">
        <ele>356</ele>
        <time>2010-03-14T16:23:06.3Z</time>
      </trkpt>
      <trkpt lat="45.27033" lon="5.66028">
        <ele>354</ele>
        <time>2010-03-14T16:23:16.31Z</time>
      </trkpt>
      <trkpt lat="45.27014" lon="5.66026">
        <ele>350</ele>
        <time>2010-03-14T16:23:27.3Z</time>
      </trkpt>
      <trkpt lat="45.2699" lon="5.66005">
        <ele>337</ele>
        <time>2010-03-14T16:23:37.3Z</time>
      </trkpt>
      <trkpt lat="45.26952" lon="5.65996">
        <ele>317</ele>
        <time>2010-03-14T16:23:47.29Z</time>
      </trkpt>
      <trkpt lat="45.269" lon="5.65962">
        <ele>302</ele>
        <time>2010-03-14T16:23:58.29Z</time>
      </trkpt>
      <trkpt lat="45.26858" lon="5.65944">
        <ele>295</ele>
        <time>2010-03-14T16:24:09.29Z</time>
      </trkpt>
      <trkpt lat="45.26832" lon="5.65938">
        <ele>285</ele>
        <time>2010-03-14T16:24:19.29Z</time>
      </trkpt>
      <trkpt lat="45.26776" lon="5.65881">
        <ele>257</ele>
        <time>2010-03-14T16:24:30.28Z</time>
      </trkpt>
      <trkpt lat="45.26742" lon="5.65859">
        <ele>248</ele>
        <time>2010-03-14T16:24:40.29Z</time>
      </trkpt>
      <trkpt lat="45.26724" lon="5.65857">
        <ele>247</ele>
        <time>2010-03-14T16:24:50.28Z</time>
      </trkpt>
      <trkpt lat="45.26681" lon="5.65865">
        <ele>245</ele>
        <time>2010-03-14T16:25:04.27Z</time>
      </trkpt>
      <trkpt lat="45.26652" lon="5.65858">
        <ele>234</ele>
        <time>2010-03-14T16:25:15.27Z</time>
      </trkpt>
      <trkpt lat="45.26615" lon="5.65815">
        <ele>211</ele>
        <time>2010-03-14T16:25:30.27Z</time>
      </trkpt>
      <trkpt lat="45.26611" lon="5.65816">
        <ele>210</ele>
        <time>2010-03-14T16:25:40.27Z</time>
      </trkpt>
      <trkpt lat="45.26606" lon="5.65822">
        <ele>211</ele>
        <time>2010-03-14T16:25:50.27Z</time>
      </trkpt>
      <trkpt lat="45.26604" lon="5.65823">
        <ele>210</ele>
        <time>2010-03-14T16:26:00.26Z</time>
      </trkpt>
      <trkpt lat="45.26603" lon="5.65823">
        <ele>210</ele>
        <time>2010-03-14T16:26:10.26Z</time>
      </trkpt>
      <trkpt lat="45.26602" lon="5.65825">
        <ele>211</ele>
        <time>2010-03-14T16:26:20.26Z</time>
      </trkpt>
      <trkpt lat="45.266" lon="5.65828">
        <ele>211</ele>
        <time>2010-03-14T16:26:30.26Z</time>
      </trkpt>
      <trkpt lat="45.26598" lon="5.65824">
        <ele>210</ele>
        <time>2010-03-14T16:26:40.25Z</time>
      </trkpt>
      <trkpt lat="45.26597" lon="5.65823">
        <ele>210</ele>
        <time>2010-03-14T16:26:50.25Z</time>
      </trkpt>
      <trkpt lat="45.26596" lon="5.65827">
        <ele>210</ele>
        <time>2010-03-14T16:27:00.25Z</time>
      </trkpt>
      <trkpt lat="45.26596" lon="5.65828">
        <ele>211</ele>
        <time>2010-03-14T16:27:10.25Z</time>
      </trkpt>
      <trkpt lat="45.26596" lon="5.65829">
        <ele>211</ele>
        <time>2010-03-14T16:27:20.24Z</time>
      </trkpt>
      <trkpt lat="45.26594" lon="5.65831">
        <ele>211</ele>
        <time>2010-03-14T16:27:30.24Z</time>
      </trkpt>
      <trkpt lat="45.26593" lon="5.65832">
        <ele>211</ele>
        <time>2010-03-14T16:27:40.24Z</time>
      </trkpt>
      <trkpt lat="45.26593" lon="5.65836">
        <ele>219</ele>
        <time>2010-03-14T16:27:50.24Z</time>
      </trkpt>
      <trkpt lat="45.26592" lon="5.65836">
        <ele>219</ele>
        <time>2010-03-14T16:28:00.23Z</time>
      </trkpt>
      <trkpt lat="45.26593" lon="5.65835">
        <ele>219</ele>
        <time>2010-03-14T16:28:10.23Z</time>
      </trkpt>
      <trkpt lat="45.26593" lon="5.65835">
        <ele>219</ele>
        <time>2010-03-14T16:28:20.23Z</time>
      </trkpt>
      <trkpt lat="45.26592" lon="5.65835">
        <ele>218</ele>
        <time>2010-03-14T16:28:30.22Z</time>
      </trkpt>
      <trkpt lat="45.26593" lon="5.65836">
        <ele>219</ele>
        <time>2010-03-14T16:28:40.22Z</time>
      </trkpt>
      <trkpt lat="45.26593" lon="5.65835">
        <ele>219</ele>
        <time>2010-03-14T16:28:50.22Z</time>
      </trkpt>
      <trkpt lat="45.26593" lon="5.65834">
        <ele>219</ele>
        <time>2010-03-14T16:29:00.22Z</time>
      </trkpt>
    </trkseg>
  </trk>
</gpx>